createdAt,value
2018-04-13T00:00:14.824Z,13.71
2018-04-13T00:02:49.322Z,13.71
2018-04-13T00:05:22.846Z,13.71
2018-04-13T00:07:56.410Z,13.74
2018-04-13T00:10:30.910Z,13.73
2018-04-13T00:13:04.673Z,13.65
2018-04-13T00:15:38.192Z,13.63
2018-04-13T00:18:11.730Z,13.68
2018-04-13T00:20:45.739Z,13.71
2018-04-13T00:23:19.396Z,13.68
2018-04-13T00:25:53.259Z,13.70
2018-04-13T00:28:26.905Z,13.70
2018-04-13T00:31:01.103Z,13.69
2018-04-13T00:33:35.179Z,13.69
2018-04-13T00:36:08.822Z,13.68
2018-04-13T00:38:42.366Z,13.64
2018-04-13T00:41:16.070Z,13.69
2018-04-13T00:43:49.927Z,13.61
2018-04-13T00:46:23.460Z,13.61
2018-04-13T00:48:57.114Z,13.49
2018-04-13T00:51:30.910Z,13.46
2018-04-13T00:54:04.711Z,13.39
2018-04-13T00:56:39.078Z,13.37
2018-04-13T00:59:12.665Z,13.34
2018-04-13T01:01:46.334Z,13.32
2018-04-13T01:04:20.146Z,13.30
2018-04-13T01:06:53.942Z,13.20
2018-04-13T01:09:27.512Z,13.20
2018-04-13T01:12:01.225Z,13.11
2018-04-13T01:14:35.104Z,13.12
2018-04-13T01:17:08.751Z,13.17
2018-04-13T01:19:42.405Z,13.14
2018-04-13T01:22:16.202Z,13.07
2018-04-13T01:24:49.806Z,13.04
2018-04-13T01:27:23.463Z,12.97
2018-04-13T01:29:57.146Z,12.96
2018-04-13T01:32:30.836Z,12.91
2018-04-13T01:35:04.351Z,12.99
2018-04-13T01:37:38.002Z,12.98
2018-04-13T01:40:11.774Z,12.93
2018-04-13T01:42:45.434Z,13.00
2018-04-13T01:45:19.263Z,13.03
2018-04-13T01:47:53.016Z,12.99
2018-04-13T01:50:26.711Z,12.98
2018-04-13T01:53:01.302Z,12.95
2018-04-13T01:55:34.963Z,12.90
2018-04-13T01:58:08.535Z,12.92
2018-04-13T02:00:42.326Z,12.93
2018-04-13T02:03:16.040Z,12.85
2018-04-13T02:05:50.103Z,12.89
2018-04-13T02:08:24.579Z,12.83
2018-04-13T02:10:58.293Z,12.77
2018-04-13T02:13:31.968Z,12.62
2018-04-13T02:16:05.608Z,12.59
2018-04-13T02:18:39.321Z,12.63
2018-04-13T02:21:13.069Z,12.54
2018-04-13T02:23:46.630Z,12.54
2018-04-13T02:26:20.166Z,12.58
2018-04-13T02:28:53.812Z,12.54
2018-04-13T02:31:27.630Z,12.54
2018-04-13T02:34:01.183Z,12.53
2018-04-13T02:36:34.750Z,12.55
2018-04-13T02:39:08.712Z,12.49
2018-04-13T02:41:42.361Z,12.42
2018-04-13T02:44:16.115Z,12.48
2018-04-13T02:46:49.810Z,12.40
2018-04-13T02:49:23.366Z,12.36
2018-04-13T02:51:57.902Z,12.38
2018-04-13T02:54:31.432Z,12.40
2018-04-13T02:57:05.161Z,12.40
2018-04-13T02:59:39.665Z,12.35
2018-04-13T03:02:13.277Z,12.33
2018-04-13T03:04:47.011Z,12.32
2018-04-13T03:07:20.546Z,12.28
2018-04-13T03:09:54.167Z,12.25
2018-04-13T03:12:27.767Z,12.33
2018-04-13T03:15:01.906Z,12.24
2018-04-13T03:17:35.784Z,12.32
2018-04-13T03:20:09.421Z,12.30
2018-04-13T03:22:42.933Z,12.24
2018-04-13T03:25:16.430Z,12.15
2018-04-13T03:27:49.971Z,12.14
2018-04-13T03:30:24.375Z,12.16
2018-04-13T03:32:58.103Z,12.14
2018-04-13T03:35:32.183Z,12.14
2018-04-13T03:38:05.875Z,12.12
2018-04-13T03:40:39.719Z,12.14
2018-04-13T03:43:14.114Z,12.17
2018-04-13T03:45:48.505Z,12.18
2018-04-13T03:48:22.268Z,12.18
2018-04-13T03:50:56.704Z,12.15
2018-04-13T03:53:30.343Z,12.19
2018-04-13T03:56:04.039Z,12.23
2018-04-13T03:58:37.599Z,12.22
2018-04-13T04:01:11.071Z,12.27
2018-04-13T04:03:44.565Z,12.21
2018-04-13T04:08:58.161Z,12.25
2018-04-13T04:11:31.965Z,12.26
2018-04-13T04:14:05.509Z,12.28
2018-04-13T04:16:39.407Z,12.27
2018-04-13T04:19:12.937Z,12.23
2018-04-13T04:21:58.251Z,12.29
2018-04-13T04:24:43.891Z,12.23
2018-04-13T04:27:17.619Z,12.13
2018-04-13T04:29:51.118Z,12.10
2018-04-13T04:32:24.642Z,12.15
2018-04-13T04:34:58.213Z,12.17
2018-04-13T04:37:31.740Z,12.14
2018-04-13T04:40:06.162Z,12.06
2018-04-13T04:42:39.751Z,12.00
2018-04-13T04:45:13.421Z,11.95
2018-04-13T04:47:47.178Z,11.84
2018-04-13T04:50:20.893Z,11.84
2018-04-13T04:52:54.463Z,11.76
2018-04-13T04:55:27.990Z,11.66
2018-04-13T04:58:01.863Z,11.62
2018-04-13T05:00:35.498Z,11.53
2018-04-13T05:03:09.015Z,11.48
2018-04-13T05:05:42.572Z,11.47
2018-04-13T05:08:16.372Z,11.48
2018-04-13T05:10:50.052Z,11.52
2018-04-13T05:13:23.818Z,11.57
2018-04-13T05:15:57.772Z,11.70
2018-04-13T05:18:31.400Z,11.70
2018-04-13T05:21:04.985Z,11.80
2018-04-13T05:23:38.614Z,11.85
2018-04-13T05:26:12.491Z,11.89
2018-04-13T05:28:46.555Z,11.94
2018-04-13T05:31:20.183Z,12.04
2018-04-13T05:33:53.875Z,12.04
2018-04-13T05:36:27.431Z,12.01
2018-04-13T05:39:01.277Z,12.01
2018-04-13T05:41:34.889Z,12.02
2018-04-13T05:44:08.502Z,12.07
2018-04-13T05:46:42.291Z,11.97
2018-04-13T05:49:15.827Z,11.97
2018-04-13T05:51:49.514Z,11.98
2018-04-13T05:54:23.502Z,12.04
2018-04-13T05:56:57.153Z,12.10
2018-04-13T05:59:31.834Z,12.17
2018-04-13T06:02:05.451Z,12.13
2018-04-13T06:04:39.003Z,12.16
2018-04-13T06:07:12.520Z,12.14
2018-04-13T06:09:46.169Z,12.27
2018-04-13T06:12:19.722Z,12.40
2018-04-13T06:14:53.450Z,12.37
2018-04-13T06:17:27.071Z,12.38
2018-04-13T06:20:00.556Z,12.49
2018-04-13T06:22:34.096Z,12.41
2018-04-13T06:25:07.630Z,12.60
2018-04-13T06:27:41.156Z,12.55
2018-04-13T06:30:14.828Z,12.58
2018-04-13T06:32:48.553Z,12.58
2018-04-13T06:35:22.218Z,12.64
2018-04-13T06:37:57.618Z,12.61
2018-04-13T06:40:31.310Z,12.65
2018-04-13T06:43:04.939Z,12.69
2018-04-13T06:45:38.720Z,12.68
2018-04-13T06:48:12.260Z,12.78
2018-04-13T06:50:45.915Z,12.74
2018-04-13T06:53:19.824Z,12.75
2018-04-13T06:55:53.600Z,12.79
2018-04-13T06:58:27.414Z,12.84
2018-04-13T07:01:01.304Z,12.91
2018-04-13T07:03:34.833Z,12.83
2018-04-13T07:06:08.404Z,13.03
2018-04-13T07:08:42.163Z,13.19
2018-04-13T07:11:15.746Z,13.36
2018-04-13T07:13:49.495Z,13.38
2018-04-13T07:16:23.013Z,13.28
2018-04-13T07:18:56.719Z,13.59
2018-04-13T07:21:31.360Z,13.84
2018-04-13T07:24:05.627Z,13.60
2018-04-13T07:26:39.819Z,13.95
2018-04-13T07:29:14.731Z,13.98
2018-04-13T07:31:48.919Z,14.36
2018-04-13T07:34:23.237Z,14.60
2018-04-13T07:36:56.291Z,14.55
2018-04-13T07:39:29.875Z,14.33
2018-04-13T07:42:03.704Z,14.67
2018-04-13T07:44:37.255Z,14.94
2018-04-13T07:47:10.975Z,14.35
2018-04-13T07:49:44.733Z,14.61
2018-04-13T07:52:19.789Z,14.36
2018-04-13T07:54:52.914Z,14.74
2018-04-13T07:57:26.659Z,15.05
2018-04-13T08:00:00.266Z,15.32
2018-04-13T08:02:33.891Z,14.76
2018-04-13T08:05:07.610Z,14.78
2018-04-13T08:07:41.480Z,14.34
2018-04-13T08:10:15.307Z,14.36
2018-04-13T08:12:48.723Z,14.42
2018-04-13T08:15:22.240Z,14.18
2018-04-13T08:17:55.987Z,14.42
2018-04-13T08:20:29.559Z,14.65
2018-04-13T08:23:03.364Z,14.72
2018-04-13T08:25:36.922Z,14.78
2018-04-13T08:28:10.664Z,14.87
2018-04-13T08:30:44.165Z,14.76
2018-04-13T08:33:17.890Z,14.59
2018-04-13T08:35:51.662Z,14.49
2018-04-13T08:38:25.510Z,14.22
2018-04-13T08:40:59.312Z,14.04
2018-04-13T08:43:32.885Z,13.79
2018-04-13T08:46:07.690Z,13.75
2018-04-13T08:48:41.389Z,13.94
2018-04-13T08:51:15.103Z,13.95
2018-04-13T08:53:48.689Z,14.12
2018-04-13T08:56:22.264Z,14.03
2018-04-13T08:58:56.294Z,13.86
2018-04-13T09:01:30.064Z,14.00
2018-04-13T09:04:03.812Z,13.94
2018-04-13T09:06:37.717Z,14.01
2018-04-13T09:09:11.599Z,13.76
2018-04-13T09:11:45.168Z,13.57
2018-04-13T09:14:18.818Z,13.64
2018-04-13T09:16:52.708Z,13.81
2018-04-13T09:19:26.342Z,13.88
2018-04-13T09:21:59.858Z,14.01
2018-04-13T09:24:33.540Z,14.06
2018-04-13T09:27:08.157Z,14.23
2018-04-13T09:29:41.887Z,14.29
2018-04-13T09:32:15.455Z,14.20
2018-04-13T09:34:49.023Z,14.12
2018-04-13T09:37:22.542Z,14.22
2018-04-13T09:39:56.380Z,14.14
2018-04-13T09:42:29.938Z,14.31
2018-04-13T09:45:04.572Z,14.28
2018-04-13T09:47:39.476Z,14.04
2018-04-13T09:50:13.276Z,13.99
2018-04-13T09:52:46.795Z,14.10
2018-04-13T09:55:20.532Z,14.18
2018-04-13T09:57:54.074Z,14.21
2018-04-13T10:00:30.534Z,14.20
2018-04-13T10:03:09.735Z,14.19
2018-04-13T10:05:43.512Z,14.09
2018-04-13T10:08:17.173Z,13.94
2018-04-13T10:10:51.605Z,13.78
2018-04-13T10:13:25.130Z,13.77
2018-04-13T10:15:58.691Z,14.00
2018-04-13T10:18:33.235Z,14.00
2018-04-13T10:21:06.784Z,14.04
2018-04-13T10:23:41.611Z,14.14
2018-04-13T10:26:23.026Z,14.03
2018-04-13T10:28:56.644Z,14.25
2018-04-13T10:31:30.257Z,14.34
2018-04-13T10:34:03.986Z,14.31
2018-04-13T10:36:37.519Z,14.40
2018-04-13T10:39:11.086Z,14.57
2018-04-13T10:41:44.908Z,14.34
2018-04-13T10:44:18.686Z,14.37
2018-04-13T10:56:37.524Z,14.51
2018-04-13T10:59:11.322Z,14.67
2018-04-13T11:01:45.132Z,14.69
2018-04-13T11:04:18.664Z,14.65
2018-04-13T11:06:52.520Z,14.67
2018-04-13T11:09:26.225Z,14.67
2018-04-13T11:11:59.903Z,14.76
2018-04-13T11:14:33.664Z,14.79
2018-04-13T11:17:07.360Z,14.79
2018-04-13T11:19:41.050Z,14.68
2018-04-13T11:22:14.876Z,14.66
2018-04-13T11:24:48.610Z,14.76
2018-04-13T11:27:22.401Z,14.81
2018-04-13T11:29:56.037Z,14.81
2018-04-13T11:32:29.822Z,14.78
2018-04-13T11:35:03.550Z,14.76
2018-04-13T11:37:37.120Z,14.76
2018-04-13T11:40:10.764Z,14.75
2018-04-13T11:42:44.266Z,14.80
2018-04-13T11:45:18.024Z,14.77
2018-04-13T11:47:51.698Z,14.78
2018-04-13T11:50:25.361Z,14.79
2018-04-13T11:52:58.976Z,14.72
2018-04-13T11:55:32.644Z,14.48
2018-04-13T11:58:06.256Z,14.22
2018-04-13T12:00:40.020Z,14.40
2018-04-13T12:03:14.190Z,14.47
2018-04-13T12:05:47.865Z,14.52
2018-04-13T12:08:21.590Z,14.56
2018-04-13T12:10:56.141Z,14.62
2018-04-13T12:13:30.566Z,14.74
2018-04-13T12:16:04.303Z,14.78
2018-04-13T12:18:37.863Z,14.85
2018-04-13T12:21:11.621Z,14.79
2018-04-13T12:23:45.242Z,14.70
2018-04-13T12:26:18.841Z,14.65
2018-04-13T12:28:52.426Z,14.74
2018-04-13T12:31:26.755Z,14.76
2018-04-13T12:34:00.775Z,14.76
2018-04-13T12:36:34.514Z,14.70
2018-04-13T12:39:09.217Z,14.70
2018-04-13T12:41:42.972Z,14.68
2018-04-13T12:44:16.596Z,14.73
2018-04-13T12:46:50.320Z,14.75
2018-04-13T12:49:24.797Z,14.73
2018-04-13T12:51:58.368Z,14.79
2018-04-13T12:54:32.376Z,14.77
2018-04-13T12:57:05.965Z,14.75
2018-04-13T12:59:40.091Z,14.83
2018-04-13T13:02:13.688Z,14.83
2018-04-13T13:04:47.352Z,14.94
2018-04-13T13:07:21.831Z,14.88
2018-04-13T13:09:55.486Z,14.90
2018-04-13T13:12:29.173Z,14.93
2018-04-13T13:15:02.983Z,14.93
2018-04-13T13:17:36.745Z,14.81
2018-04-13T13:20:11.529Z,14.84
2018-04-13T13:22:45.022Z,14.81
2018-04-13T13:25:19.431Z,14.78
2018-04-13T13:27:53.139Z,14.77
2018-04-13T13:30:27.458Z,14.86
2018-04-13T13:33:01.555Z,14.84
2018-04-13T13:35:35.188Z,14.86
2018-04-13T13:38:09.734Z,14.88
2018-04-13T13:40:43.351Z,14.85
2018-04-13T13:43:17.067Z,14.81
2018-04-13T13:45:50.740Z,14.85
2018-04-13T13:48:25.111Z,14.82
2018-04-13T13:50:58.796Z,14.86
2018-04-13T13:53:32.402Z,14.90
2018-04-13T13:56:06.998Z,14.87
2018-04-13T13:58:40.525Z,14.84
2018-04-13T14:01:14.494Z,14.79
2018-04-13T14:16:49.649Z,14.68
2018-04-13T14:19:23.322Z,14.65
2018-04-13T14:21:57.282Z,14.46
2018-04-13T14:24:30.938Z,14.39
2018-04-13T14:27:04.838Z,14.35
2018-04-13T14:29:38.470Z,14.34
2018-04-13T14:32:12.851Z,14.35
2018-04-13T14:34:47.343Z,14.37
2018-04-13T14:37:21.926Z,14.32
2018-04-13T14:39:55.533Z,14.34
2018-04-13T14:42:29.253Z,14.35
2018-04-13T14:54:53.715Z,14.14
2018-04-13T14:57:27.628Z,14.16
2018-04-13T15:00:01.335Z,14.05
2018-04-13T15:02:35.164Z,13.86
2018-04-13T15:05:08.804Z,13.91
2018-04-13T15:07:42.446Z,13.86
2018-04-13T15:10:16.238Z,13.90
2018-04-13T15:12:49.991Z,13.84
2018-04-13T15:15:23.558Z,13.77
2018-04-13T15:17:57.501Z,13.70
2018-04-13T15:20:31.082Z,13.70
2018-04-13T15:23:04.644Z,13.65
2018-04-13T15:25:38.575Z,13.70
2018-04-13T15:28:12.295Z,13.72
2018-04-13T15:30:45.864Z,13.71
2018-04-13T15:33:19.595Z,13.64
2018-04-13T15:35:53.173Z,13.66
2018-04-13T15:38:27.246Z,13.65
2018-04-13T15:41:01.157Z,13.58
2018-04-13T15:43:34.744Z,13.50
2018-04-13T15:46:09.362Z,13.52
2018-04-13T15:48:43.964Z,13.60
2018-04-13T15:51:17.746Z,13.65
2018-04-13T15:53:51.275Z,13.73
2018-04-13T15:56:24.827Z,13.76
2018-04-13T15:58:59.269Z,13.71
2018-04-13T16:01:32.979Z,13.72
2018-04-13T16:04:06.625Z,13.76
2018-04-13T16:06:40.206Z,13.70
2018-04-13T16:09:13.923Z,13.76
2018-04-13T16:11:47.455Z,13.84
2018-04-13T16:14:21.026Z,13.84
2018-04-13T16:16:54.578Z,13.81
2018-04-13T16:19:29.203Z,13.77
2018-04-13T16:22:02.850Z,13.77
2018-04-13T16:24:36.529Z,13.77
2018-04-13T16:27:11.240Z,13.79
2018-04-13T16:29:45.271Z,13.77
2018-04-13T16:32:19.651Z,13.87
2018-04-13T16:34:53.688Z,13.87
2018-04-13T16:37:27.359Z,13.90
2018-04-13T16:40:00.913Z,13.89
2018-04-13T16:42:34.810Z,13.74
2018-04-13T16:45:08.452Z,13.73
2018-04-13T16:47:42.004Z,13.83
2018-04-13T16:50:16.575Z,13.79
2018-04-13T16:52:50.243Z,13.85
2018-04-13T16:55:24.919Z,13.93
2018-04-13T16:57:58.511Z,13.89
2018-04-13T17:00:32.206Z,13.87
2018-04-13T17:03:05.756Z,13.89
2018-04-13T17:05:39.561Z,13.98
2018-04-13T17:08:14.802Z,13.97
2018-04-13T17:10:48.402Z,14.04
2018-04-13T17:13:21.945Z,13.92
2018-04-13T17:15:55.577Z,13.92
2018-04-13T17:18:29.201Z,13.88
2018-04-13T17:21:02.977Z,13.84
2018-04-13T17:23:36.667Z,13.80
2018-04-13T17:26:10.414Z,13.75
2018-04-13T17:28:44.060Z,13.69
2018-04-13T17:31:17.703Z,13.84
2018-04-13T17:33:52.015Z,13.82
2018-04-13T17:36:25.606Z,13.75
2018-04-13T17:38:59.140Z,13.79
2018-04-13T17:41:34.398Z,13.50
2018-04-13T17:44:08.935Z,13.57
2018-04-13T17:46:42.592Z,13.53
2018-04-13T17:49:16.164Z,13.58
2018-04-13T17:51:49.987Z,13.53
2018-04-13T17:54:23.785Z,13.53
2018-04-13T17:56:57.540Z,13.40
2018-04-13T17:59:31.173Z,13.27
2018-04-13T18:15:04.943Z,13.25
2018-04-13T18:17:38.631Z,13.32
2018-04-13T18:20:12.131Z,13.20
2018-04-13T18:22:45.893Z,13.23
2018-04-13T18:25:19.452Z,13.18
2018-04-13T18:27:53.167Z,13.02
2018-04-13T18:30:27.907Z,12.96
2018-04-13T18:33:01.646Z,13.05
2018-04-13T18:35:35.510Z,12.57
2018-04-13T18:38:09.209Z,12.66
2018-04-13T18:40:43.505Z,12.76
2018-04-13T18:43:17.155Z,12.82
2018-04-13T18:45:51.226Z,12.73
2018-04-13T18:48:24.780Z,12.50
2018-04-13T18:50:58.354Z,12.69
2018-04-13T18:53:31.993Z,12.62
2018-04-13T18:56:05.613Z,12.69
2018-04-13T18:58:39.278Z,12.87
2018-04-13T19:01:12.858Z,12.93
2018-04-13T19:03:46.479Z,12.98
2018-04-13T19:06:20.002Z,13.08
2018-04-13T19:08:53.639Z,13.17
2018-04-13T19:11:27.125Z,13.16
2018-04-13T19:14:00.795Z,13.05
2018-04-13T19:16:34.419Z,12.98
2018-04-13T19:19:08.063Z,12.99
2018-04-13T19:21:41.629Z,13.00
2018-04-13T19:24:15.285Z,12.95
2018-04-13T19:26:48.840Z,12.87
2018-04-13T19:29:22.371Z,12.83
2018-04-13T19:31:57.356Z,12.81
2018-04-13T19:34:31.087Z,12.81
2018-04-13T19:37:04.687Z,12.69
2018-04-13T19:39:38.239Z,12.67
2018-04-13T19:42:12.740Z,12.84
2018-04-13T19:44:46.580Z,12.78
2018-04-13T19:47:21.203Z,12.77
2018-04-13T19:49:54.872Z,12.69
2018-04-13T19:52:29.334Z,12.68
2018-04-13T19:55:03.006Z,12.62
2018-04-13T19:57:36.834Z,12.41
2018-04-13T20:00:10.506Z,12.51
2018-04-13T20:02:44.672Z,12.70
2018-04-13T20:05:18.379Z,12.79
2018-04-13T20:07:52.382Z,12.90
2018-04-13T20:10:26.030Z,12.91
2018-04-13T20:12:59.540Z,12.89
2018-04-13T20:15:33.259Z,12.93
2018-04-13T20:18:07.539Z,12.80
2018-04-13T20:20:41.416Z,12.89
2018-04-13T20:23:15.117Z,12.98
2018-04-13T20:25:49.780Z,13.08
2018-04-13T20:28:23.379Z,13.08
2018-04-13T20:30:57.875Z,13.06
2018-04-13T20:33:31.563Z,13.02
2018-04-13T20:36:05.470Z,13.09
2018-04-13T20:38:39.104Z,12.92
2018-04-13T20:41:12.639Z,13.08
2018-04-13T20:43:46.376Z,13.01
2018-04-13T20:46:20.935Z,12.87
2018-04-13T20:48:54.655Z,12.95
2018-04-13T20:51:28.229Z,13.03
2018-04-13T20:54:01.919Z,13.02
2018-04-13T20:56:36.126Z,13.00
2018-04-13T20:59:09.712Z,12.86
2018-04-13T21:01:43.427Z,12.90
2018-04-13T21:04:17.300Z,12.97
2018-04-13T21:19:52.846Z,12.71
2018-04-13T21:22:27.951Z,12.76
2018-04-13T21:25:01.548Z,12.84
2018-04-13T21:27:35.263Z,12.73
2018-04-13T21:30:09.193Z,12.79
2018-04-13T21:32:42.795Z,12.83
2018-04-13T21:35:16.541Z,12.85
2018-04-13T21:37:51.066Z,12.82
2018-04-13T21:40:24.800Z,12.86
2018-04-13T21:42:58.343Z,12.81
2018-04-13T21:55:17.078Z,12.75
2018-04-13T21:57:50.825Z,12.84
2018-04-13T22:00:24.371Z,12.69
2018-04-13T22:02:58.040Z,12.66
2018-04-13T22:05:31.946Z,12.69
2018-04-13T22:08:06.247Z,12.74
2018-04-13T22:10:40.318Z,12.81
2018-04-13T22:13:33.119Z,12.86
2018-04-13T22:16:07.027Z,12.94
2018-04-13T22:18:40.491Z,12.88
2018-04-13T22:21:15.055Z,12.87
2018-04-13T22:23:48.732Z,12.99
2018-04-13T22:26:22.348Z,12.96
2018-04-13T22:28:55.995Z,13.01
2018-04-13T22:31:29.780Z,13.04
2018-04-13T22:34:03.577Z,13.01
2018-04-13T22:36:37.162Z,13.01
2018-04-13T22:39:11.702Z,13.02
2018-04-13T22:41:45.548Z,12.95
2018-04-13T22:44:19.980Z,13.04
2018-04-13T22:46:53.772Z,12.99
2018-04-13T22:49:27.311Z,12.55
2018-04-13T22:52:00.872Z,12.68
2018-04-13T22:54:35.135Z,12.66
2018-04-13T22:57:09.008Z,12.74
2018-04-13T22:59:42.707Z,12.72
2018-04-13T23:02:16.355Z,12.59
2018-04-13T23:04:50.080Z,12.37
2018-04-13T23:07:23.880Z,12.53
2018-04-13T23:09:57.631Z,12.67
2018-04-13T23:12:31.181Z,12.78
2018-04-13T23:15:04.928Z,12.83
2018-04-13T23:17:38.447Z,12.81
2018-04-13T23:20:12.130Z,12.80
2018-04-13T23:22:45.682Z,12.73
2018-04-13T23:25:19.249Z,12.72
2018-04-13T23:27:52.761Z,12.80
2018-04-13T23:30:26.315Z,12.87
2018-04-13T23:32:59.945Z,12.93
2018-04-13T23:35:33.481Z,12.76
2018-04-13T23:38:08.305Z,12.72
2018-04-13T23:40:41.901Z,12.83
2018-04-13T23:43:15.435Z,12.92
2018-04-13T23:45:49.097Z,12.93
2018-04-13T23:48:22.822Z,12.91
2018-04-13T23:50:56.569Z,12.92
2018-04-13T23:53:30.188Z,12.86
2018-04-13T23:56:05.031Z,12.70
2018-04-13T23:58:38.624Z,12.58
